createdAt,value
2019-03-02T00:00:15.083Z,966.62
2019-03-02T00:01:15.030Z,966.61
2019-03-02T00:02:14.974Z,966.62
2019-03-02T00:03:14.950Z,966.63
2019-03-02T00:04:14.865Z,966.66
2019-03-02T00:05:14.808Z,966.67
2019-03-02T00:06:14.768Z,966.69
2019-03-02T00:07:14.731Z,966.71
2019-03-02T00:08:14.645Z,966.67
2019-03-02T00:09:14.599Z,966.70
2019-03-02T00:10:14.535Z,966.73
2019-03-02T00:11:17.766Z,966.70
2019-03-02T00:12:14.457Z,966.72
2019-03-02T00:13:14.368Z,966.68
2019-03-02T00:14:15.736Z,966.71
2019-03-02T00:15:14.258Z,966.64
2019-03-02T00:16:14.202Z,966.58
2019-03-02T00:17:15.397Z,966.66
2019-03-02T00:18:14.097Z,966.69
2019-03-02T00:19:14.070Z,966.64
2019-03-02T00:20:14.753Z,966.65
2019-03-02T00:21:13.960Z,966.66
2019-03-02T00:22:13.871Z,966.62
2019-03-02T00:23:15.820Z,966.61
2019-03-02T00:24:13.762Z,966.60
2019-03-02T00:25:13.708Z,966.63
2019-03-02T00:26:13.687Z,966.63
2019-03-02T00:27:13.596Z,966.63
2019-03-02T00:28:13.561Z,966.61
2019-03-02T00:29:13.520Z,966.61
2019-03-02T00:30:13.431Z,966.65
2019-03-02T00:31:13.407Z,966.63
2019-03-02T00:32:13.317Z,966.62
2019-03-02T00:33:13.271Z,966.65
2019-03-02T00:34:13.207Z,966.61
2019-03-02T00:35:13.152Z,966.60
2019-03-02T00:36:16.058Z,966.60
2019-03-02T00:37:13.169Z,966.59
2019-03-02T00:38:12.994Z,966.58
2019-03-02T00:39:15.579Z,966.59
2019-03-02T00:40:12.874Z,966.62
2019-03-02T00:41:12.821Z,966.60
2019-03-02T00:42:13.578Z,966.58
2019-03-02T00:43:12.713Z,966.61
2019-03-02T00:44:12.652Z,966.57
2019-03-02T00:45:14.241Z,966.59
2019-03-02T00:46:12.548Z,966.53
2019-03-02T00:47:12.540Z,966.56
2019-03-02T00:48:12.524Z,966.56
2019-03-02T00:49:12.379Z,966.57
2019-03-02T00:50:12.328Z,966.57
2019-03-02T00:51:12.275Z,966.59
2019-03-02T00:52:12.254Z,966.54
2019-03-02T00:53:12.157Z,966.61
2019-03-02T00:54:12.547Z,966.55
2019-03-02T00:55:12.048Z,966.55
2019-03-02T00:56:12.001Z,966.57
2019-03-02T00:57:14.733Z,966.58
2019-03-02T00:58:11.922Z,966.54
2019-03-02T00:59:11.828Z,966.55
2019-03-02T01:00:15.211Z,966.56
2019-03-02T01:01:11.761Z,966.54
2019-03-02T01:02:11.696Z,966.55
2019-03-02T01:03:12.032Z,966.54
2019-03-02T01:04:11.548Z,966.52
2019-03-02T01:05:11.492Z,966.49
2019-03-02T01:06:12.680Z,966.49
2019-03-02T01:07:11.385Z,966.45
2019-03-02T01:08:11.364Z,966.44
2019-03-02T01:09:11.784Z,966.48
2019-03-02T01:10:11.218Z,966.47
2019-03-02T01:11:11.165Z,966.48
2019-03-02T01:12:11.141Z,966.47
2019-03-02T01:13:11.051Z,966.50
2019-03-02T01:14:11.026Z,966.52
2019-03-02T01:15:10.941Z,966.52
2019-03-02T01:16:10.885Z,966.53
2019-03-02T01:17:10.829Z,966.53
2019-03-02T01:18:10.775Z,966.51
2019-03-02T01:19:10.748Z,966.52
2019-03-02T01:20:10.663Z,966.51
2019-03-02T01:21:10.608Z,966.53
2019-03-02T01:22:13.591Z,966.49
2019-03-02T01:23:10.498Z,966.49
2019-03-02T01:24:10.439Z,966.50
2019-03-02T01:25:13.038Z,966.46
2019-03-02T01:26:10.363Z,966.43
2019-03-02T01:27:10.276Z,966.45
2019-03-02T01:28:10.687Z,966.43
2019-03-02T01:29:10.173Z,966.39
2019-03-02T01:30:10.108Z,966.39
2019-03-02T01:31:10.082Z,966.38
2019-03-02T01:32:12.654Z,966.36
2019-03-02T01:33:09.939Z,966.33
2019-03-02T01:34:09.926Z,966.31
2019-03-02T01:35:09.833Z,966.37
2019-03-02T01:36:09.777Z,966.37
2019-03-02T01:37:09.717Z,966.35
2019-03-02T01:38:09.666Z,966.39
2019-03-02T01:39:09.639Z,966.38
2019-03-02T01:40:09.554Z,966.36
2019-03-02T01:41:09.501Z,966.39
2019-03-02T01:42:09.441Z,966.36
2019-03-02T01:43:09.421Z,966.39
2019-03-02T01:44:12.626Z,966.41
2019-03-02T01:45:09.314Z,966.36
2019-03-02T01:46:09.218Z,966.38
2019-03-02T01:47:09.163Z,966.39
2019-03-02T01:48:09.107Z,966.33
2019-03-02T01:49:09.051Z,966.32
2019-03-02T01:50:11.925Z,966.34
2019-03-02T01:51:08.944Z,966.30
2019-03-02T01:52:08.889Z,966.30
2019-03-02T01:53:09.950Z,966.29
2019-03-02T01:54:08.777Z,966.27
2019-03-02T01:55:08.719Z,966.27
2019-03-02T01:56:08.664Z,966.30
2019-03-02T01:57:08.635Z,966.27
2019-03-02T01:58:08.556Z,966.25
2019-03-02T01:59:08.530Z,966.27
2019-03-02T02:00:10.517Z,966.25
2019-03-02T02:01:08.386Z,966.28
2019-03-02T02:02:08.334Z,966.32
2019-03-02T02:03:08.560Z,966.28
2019-03-02T02:04:08.255Z,966.28
2019-03-02T02:05:08.176Z,966.27
2019-03-02T02:06:08.747Z,966.25
2019-03-02T02:07:08.053Z,966.26
2019-03-02T02:08:07.998Z,966.21
2019-03-02T02:09:07.967Z,966.21
2019-03-02T02:10:07.924Z,966.20
2019-03-02T02:11:07.871Z,966.19
2019-03-02T02:12:07.773Z,966.20
2019-03-02T02:13:07.741Z,966.20
2019-03-02T02:14:07.664Z,966.17
2019-03-02T02:15:07.609Z,966.18
2019-03-02T02:16:07.581Z,966.15
2019-03-02T02:17:07.497Z,966.15
2019-03-02T02:18:07.443Z,966.13
2019-03-02T02:19:07.388Z,966.16
2019-03-02T02:20:07.330Z,966.11
2019-03-02T02:21:07.308Z,966.12
2019-03-02T02:22:07.223Z,966.09
2019-03-02T02:23:09.897Z,966.14
2019-03-02T02:24:07.112Z,966.09
2019-03-02T02:25:07.061Z,966.10
2019-03-02T02:26:07.734Z,966.11
2019-03-02T02:27:06.970Z,966.07
2019-03-02T02:28:06.884Z,966.14
2019-03-02T02:29:08.241Z,966.09
2019-03-02T02:30:06.809Z,966.06
2019-03-02T02:31:07.962Z,966.03
2019-03-02T02:32:06.664Z,966.03
2019-03-02T02:33:06.641Z,966.08
2019-03-02T02:34:06.553Z,966.01
2019-03-02T02:35:06.529Z,966.01
2019-03-02T02:36:06.443Z,966.02
2019-03-02T02:37:06.422Z,966.05
2019-03-02T02:38:06.335Z,966.04
2019-03-02T02:39:06.298Z,966.05
2019-03-02T02:40:08.127Z,966.06
2019-03-02T02:41:06.167Z,966.01
2019-03-02T02:42:06.888Z,965.99
2019-03-02T02:43:06.083Z,965.97
2019-03-02T02:44:05.999Z,965.97
2019-03-02T02:45:05.937Z,965.96
2019-03-02T02:46:05.882Z,965.94
2019-03-02T02:47:07.347Z,965.97
2019-03-02T02:48:05.804Z,965.96
2019-03-02T02:49:10.121Z,965.96
2019-03-02T02:50:05.670Z,965.89
2019-03-02T02:51:09.814Z,965.94
2019-03-02T02:52:05.579Z,965.95
2019-03-02T02:53:06.956Z,965.92
2019-03-02T02:54:05.440Z,965.92
2019-03-02T02:55:05.412Z,965.93
2019-03-02T02:56:05.333Z,965.94
2019-03-02T02:57:05.269Z,965.97
2019-03-02T02:58:05.214Z,965.97
2019-03-02T02:59:05.160Z,965.93
2019-03-02T03:00:05.140Z,965.99
2019-03-02T03:01:05.047Z,965.95
2019-03-02T03:02:06.437Z,965.94
2019-03-02T03:03:04.970Z,965.96
2019-03-02T03:04:04.880Z,965.96
2019-03-02T03:05:04.821Z,965.95
2019-03-02T03:06:04.766Z,965.95
2019-03-02T03:07:07.068Z,965.88
2019-03-02T03:08:04.685Z,965.88
2019-03-02T03:09:05.299Z,965.93
2019-03-02T03:10:04.574Z,965.89
2019-03-02T03:11:06.678Z,965.96
2019-03-02T03:12:04.431Z,965.93
2019-03-02T03:13:04.606Z,965.93
2019-03-02T03:14:04.317Z,965.89
2019-03-02T03:15:04.265Z,965.96
2019-03-02T03:16:04.207Z,965.90
2019-03-02T03:17:04.187Z,965.91
2019-03-02T03:18:07.295Z,965.91
2019-03-02T03:19:04.039Z,965.92
2019-03-02T03:20:05.523Z,965.90
2019-03-02T03:21:03.960Z,965.95
2019-03-02T03:22:07.279Z,965.90
2019-03-02T03:23:03.815Z,965.88
2019-03-02T03:24:05.262Z,965.88
2019-03-02T03:25:04.259Z,965.84
2019-03-02T03:26:03.648Z,965.92
2019-03-02T03:27:03.591Z,965.86
2019-03-02T03:28:03.559Z,965.87
2019-03-02T03:29:05.408Z,965.86
2019-03-02T03:30:03.430Z,965.87
2019-03-02T03:31:03.367Z,965.92
2019-03-02T03:32:09.393Z,965.87
2019-03-02T03:33:03.258Z,965.87
2019-03-02T03:34:03.230Z,965.89
2019-03-02T03:35:16.132Z,965.84
2019-03-02T03:36:03.090Z,965.87
2019-03-02T03:37:03.036Z,965.85
2019-03-02T03:38:02.977Z,965.86
2019-03-02T03:39:07.277Z,965.86
2019-03-02T03:40:02.859Z,965.89
2019-03-02T03:41:05.285Z,965.88
2019-03-02T03:42:02.750Z,965.86
2019-03-02T03:43:04.572Z,965.91
2019-03-02T03:44:02.642Z,965.89
2019-03-02T03:45:04.374Z,965.90
2019-03-02T03:46:02.561Z,965.92
2019-03-02T03:47:02.473Z,965.91
2019-03-02T03:48:02.413Z,965.90
2019-03-02T03:49:02.363Z,965.90
2019-03-02T03:50:02.300Z,965.92
2019-03-02T03:51:02.290Z,965.92
2019-03-02T03:52:04.030Z,965.93
2019-03-02T03:53:02.133Z,965.91
2019-03-02T03:54:06.876Z,965.98
2019-03-02T03:55:02.071Z,965.97
2019-03-02T03:56:04.127Z,965.97
2019-03-02T03:57:01.921Z,965.97
2019-03-02T03:58:02.648Z,966.00
2019-03-02T03:59:01.826Z,965.97
2019-03-02T04:00:01.740Z,965.99
2019-03-02T04:01:01.686Z,966.01
2019-03-02T04:02:01.629Z,965.97
2019-03-02T04:03:01.590Z,965.99
2019-03-02T04:04:01.546Z,965.96
2019-03-02T04:05:06.926Z,965.97
2019-03-02T04:06:01.404Z,966.00
2019-03-02T04:07:06.313Z,966.03
2019-03-02T04:08:01.332Z,965.94
2019-03-02T04:09:03.341Z,965.95
2019-03-02T04:10:01.181Z,965.96
2019-03-02T04:11:04.599Z,965.93
2019-03-02T04:12:01.068Z,965.95
2019-03-02T04:13:05.076Z,965.96
2019-03-02T04:14:00.955Z,965.95
2019-03-02T04:15:01.453Z,966.01
2019-03-02T04:16:00.842Z,965.98
2019-03-02T04:17:01.802Z,966.00
2019-03-02T04:18:00.768Z,966.00
2019-03-02T04:19:00.678Z,965.99
2019-03-02T04:20:00.624Z,966.01
2019-03-02T04:21:00.595Z,965.99
2019-03-02T04:22:02.085Z,966.00
2019-03-02T04:23:00.457Z,965.96
2019-03-02T04:24:01.384Z,965.94
2019-03-02T04:25:00.378Z,965.97
2019-03-02T04:26:00.314Z,966.01
2019-03-02T04:27:00.257Z,965.97
2019-03-02T04:28:00.170Z,966.00
2019-03-02T04:29:00.114Z,965.99
2019-03-02T04:30:00.223Z,965.97
2019-03-02T04:31:00.036Z,966.02
2019-03-02T04:31:59.976Z,966.00
2019-03-02T04:33:01.644Z,966.06
2019-03-02T04:33:59.832Z,966.02
2019-03-02T04:34:59.777Z,966.04
2019-03-02T04:35:59.751Z,966.06
2019-03-02T04:36:59.661Z,966.06
2019-03-02T04:38:00.767Z,966.03
2019-03-02T04:38:59.555Z,965.99
2019-03-02T04:39:59.536Z,966.00
2019-03-02T04:41:00.745Z,966.04
2019-03-02T04:41:59.391Z,966.00
2019-03-02T04:42:59.324Z,966.00
2019-03-02T04:43:59.271Z,965.99
2019-03-02T04:45:01.756Z,965.98
2019-03-02T04:45:59.155Z,965.96
2019-03-02T04:46:59.104Z,966.00
2019-03-02T04:47:59.958Z,965.96
2019-03-02T04:48:58.994Z,965.92
2019-03-02T04:49:58.960Z,965.98
2019-03-02T04:50:59.576Z,966.00
2019-03-02T04:51:58.855Z,965.97
2019-03-02T04:52:58.765Z,965.96
2019-03-02T04:54:01.804Z,966.01
2019-03-02T04:54:58.702Z,966.03
2019-03-02T04:55:58.596Z,966.03
2019-03-02T04:56:58.870Z,966.04
2019-03-02T04:57:58.482Z,966.07
2019-03-02T04:58:58.427Z,966.05
2019-03-02T04:59:58.402Z,966.08
2019-03-02T05:00:58.316Z,966.07
2019-03-02T05:01:58.262Z,966.07
2019-03-02T05:02:58.243Z,966.07
2019-03-02T05:03:58.183Z,966.06
2019-03-02T05:04:58.090Z,966.09
2019-03-02T05:05:58.034Z,966.04
2019-03-02T05:06:57.979Z,966.10
2019-03-02T05:07:57.953Z,966.09
2019-03-02T05:08:57.866Z,966.07
2019-03-02T05:09:57.808Z,966.08
2019-03-02T05:11:00.664Z,966.06
2019-03-02T05:11:57.732Z,966.03
2019-03-02T05:12:57.640Z,966.01
2019-03-02T05:14:00.711Z,966.00
2019-03-02T05:14:57.559Z,966.02
2019-03-02T05:15:57.471Z,966.02
2019-03-02T05:16:57.417Z,965.97
2019-03-02T05:17:57.373Z,966.01
2019-03-02T05:18:57.305Z,965.98
2019-03-02T05:20:00.750Z,965.97
2019-03-02T05:20:57.194Z,965.97
2019-03-02T05:21:57.137Z,965.95
2019-03-02T05:22:57.081Z,965.92
2019-03-02T05:23:57.053Z,965.97
2019-03-02T05:24:56.998Z,965.96
2019-03-02T05:25:56.913Z,965.99
2019-03-02T05:26:57.644Z,965.95
2019-03-02T05:27:56.830Z,965.94
2019-03-02T05:28:56.741Z,965.92
2019-03-02T05:29:56.686Z,965.95
2019-03-02T05:30:56.628Z,965.93
2019-03-02T05:31:56.572Z,965.94
2019-03-02T05:32:56.550Z,965.90
2019-03-02T05:33:56.465Z,965.94
2019-03-02T05:34:56.404Z,965.87
2019-03-02T05:35:56.348Z,965.85
2019-03-02T05:36:59.712Z,965.90
2019-03-02T05:37:56.270Z,965.86
2019-03-02T05:38:56.180Z,965.89
2019-03-02T05:39:56.121Z,965.90
2019-03-02T05:40:56.065Z,965.88
2019-03-02T05:41:56.008Z,965.83
2019-03-02T05:42:55.982Z,965.84
2019-03-02T05:43:56.485Z,965.82
2019-03-02T05:44:55.838Z,965.84
2019-03-02T05:45:55.815Z,965.82
2019-03-02T05:46:57.825Z,965.84
2019-03-02T05:47:55.672Z,965.84
2019-03-02T05:48:55.613Z,965.83
2019-03-02T05:49:56.007Z,965.81
2019-03-02T05:50:55.535Z,965.81
2019-03-02T05:51:55.446Z,965.78
2019-03-02T05:52:55.411Z,965.79
2019-03-02T05:53:55.335Z,965.79
2019-03-02T05:54:55.278Z,965.74
2019-03-02T05:55:55.253Z,965.72
2019-03-02T05:56:55.167Z,965.72
2019-03-02T05:57:55.109Z,965.77
2019-03-02T05:58:55.083Z,965.72
2019-03-02T05:59:54.997Z,965.77
2019-03-02T06:00:54.935Z,965.78
2019-03-02T06:01:54.885Z,965.84
2019-03-02T06:02:54.859Z,965.82
2019-03-02T06:03:54.775Z,965.80
2019-03-02T06:04:56.960Z,965.87
2019-03-02T06:05:54.658Z,965.87
2019-03-02T06:06:55.456Z,965.86
2019-03-02T06:07:57.590Z,965.82
2019-03-02T06:08:54.493Z,965.82
2019-03-02T06:09:54.434Z,965.78
2019-03-02T06:10:57.975Z,965.85
2019-03-02T06:11:54.321Z,965.83
2019-03-02T06:12:54.302Z,965.85
2019-03-02T06:13:54.206Z,965.88
2019-03-02T06:14:54.150Z,965.86
2019-03-02T06:15:54.126Z,965.88
2019-03-02T06:16:57.379Z,965.89
2019-03-02T06:17:54.013Z,965.85
2019-03-02T06:18:53.929Z,965.82
2019-03-02T06:19:55.738Z,965.82
2019-03-02T06:20:53.866Z,965.81
2019-03-02T06:21:53.758Z,965.81
2019-03-02T06:22:55.544Z,965.84
2019-03-02T06:23:53.660Z,965.82
2019-03-02T06:24:53.592Z,965.86
2019-03-02T06:25:55.252Z,965.81
2019-03-02T06:26:53.475Z,965.86
2019-03-02T06:27:53.425Z,965.87
2019-03-02T06:28:54.539Z,965.86
2019-03-02T06:29:53.326Z,965.86
2019-03-02T06:30:53.284Z,965.88
2019-03-02T06:31:54.070Z,965.87
2019-03-02T06:32:53.139Z,965.90
2019-03-02T06:33:53.083Z,965.88
2019-03-02T06:34:55.865Z,965.91
2019-03-02T06:35:53.003Z,965.90
2019-03-02T06:36:52.913Z,965.94
2019-03-02T06:37:56.252Z,965.94
2019-03-02T06:38:52.802Z,965.96
2019-03-02T06:39:52.744Z,965.93
2019-03-02T06:40:54.863Z,965.92
2019-03-02T06:41:52.636Z,965.92
2019-03-02T06:42:53.999Z,965.91
2019-03-02T06:43:55.034Z,965.94
2019-03-02T06:44:52.465Z,965.91
2019-03-02T06:45:52.440Z,965.92
2019-03-02T06:46:54.685Z,965.95
2019-03-02T06:47:52.296Z,965.95
2019-03-02T06:48:52.250Z,965.93
2019-03-02T06:49:52.858Z,965.92
2019-03-02T06:50:52.166Z,965.92
2019-03-02T06:51:52.071Z,965.92
2019-03-02T06:52:52.017Z,965.91
2019-03-02T06:53:51.957Z,965.90
2019-03-02T06:54:51.901Z,965.90
2019-03-02T06:55:51.883Z,965.91
2019-03-02T06:56:57.849Z,965.89
2019-03-02T06:57:51.737Z,965.92
2019-03-02T06:58:51.679Z,965.91
2019-03-02T06:59:51.618Z,965.87
2019-03-02T07:00:51.621Z,965.89
2019-03-02T07:01:51.508Z,965.88
2019-03-02T07:02:51.452Z,965.87
2019-03-02T07:03:51.399Z,965.87
2019-03-02T07:04:51.339Z,965.87
2019-03-02T07:05:51.317Z,965.87
2019-03-02T07:06:51.230Z,965.87
2019-03-02T07:07:53.713Z,965.87
2019-03-02T07:08:51.110Z,965.88
2019-03-02T07:09:51.090Z,965.91
2019-03-02T07:10:51.001Z,965.90
2019-03-02T07:11:50.990Z,965.92
2019-03-02T07:12:50.891Z,965.92
2019-03-02T07:13:53.550Z,965.89
2019-03-02T07:14:51.781Z,965.90
2019-03-02T07:15:50.717Z,965.89
2019-03-02T07:16:52.037Z,965.91
2019-03-02T07:17:50.605Z,965.90
2019-03-02T07:18:50.547Z,965.88
2019-03-02T07:19:51.858Z,965.85
2019-03-02T07:20:50.439Z,965.89
2019-03-02T07:21:50.378Z,965.89
2019-03-02T07:22:52.479Z,965.88
2019-03-02T07:23:50.268Z,965.88
2019-03-02T07:24:50.240Z,965.90
2019-03-02T07:25:50.151Z,965.90
2019-03-02T07:26:51.601Z,965.86
2019-03-02T07:27:50.043Z,965.90
2019-03-02T07:28:50.021Z,965.91
2019-03-02T07:29:53.619Z,965.91
2019-03-02T07:30:49.871Z,965.92
2019-03-02T07:31:49.812Z,965.95
2019-03-02T07:32:49.762Z,965.98
2019-03-02T07:33:49.749Z,965.99
2019-03-02T07:34:49.644Z,966.00
2019-03-02T07:35:51.721Z,965.96
2019-03-02T07:36:49.529Z,965.98
2019-03-02T07:37:49.479Z,965.97
2019-03-02T07:38:53.024Z,965.99
2019-03-02T07:39:49.361Z,965.95
2019-03-02T07:40:49.338Z,965.96
2019-03-02T07:41:49.247Z,965.95
2019-03-02T07:42:49.191Z,965.98
2019-03-02T07:43:49.133Z,965.99
2019-03-02T07:44:49.078Z,966.02
2019-03-02T07:45:49.054Z,965.96
2019-03-02T07:46:49.166Z,965.97
2019-03-02T07:47:48.911Z,965.98
2019-03-02T07:48:48.854Z,965.97
2019-03-02T07:49:49.775Z,965.98
2019-03-02T07:50:48.790Z,965.97
2019-03-02T07:51:48.681Z,965.98
2019-03-02T07:52:49.779Z,965.97
2019-03-02T07:53:48.570Z,965.99
2019-03-02T07:54:57.743Z,965.95
2019-03-02T07:55:48.489Z,965.95
2019-03-02T07:56:48.399Z,965.98
2019-03-02T07:57:48.342Z,965.96
2019-03-02T07:58:48.321Z,965.95
2019-03-02T07:59:48.227Z,965.97
2019-03-02T08:00:48.171Z,965.98
2019-03-02T08:01:48.925Z,965.98
2019-03-02T08:02:48.058Z,965.98
2019-03-02T08:03:48.001Z,965.96
2019-03-02T08:04:47.983Z,965.98
2019-03-02T08:05:50.848Z,965.96
2019-03-02T08:06:47.840Z,965.95
2019-03-02T08:07:47.773Z,965.92
2019-03-02T08:08:49.288Z,965.91
2019-03-02T08:09:47.660Z,965.89
2019-03-02T08:10:47.607Z,965.90
2019-03-02T08:11:48.986Z,965.86
2019-03-02T08:12:47.520Z,965.89
2019-03-02T08:13:47.469Z,965.86
2019-03-02T08:14:47.921Z,965.85
2019-03-02T08:15:47.321Z,965.84
2019-03-02T08:16:47.310Z,965.82
2019-03-02T08:17:49.188Z,965.87
2019-03-02T08:18:47.154Z,965.88
2019-03-02T08:19:48.426Z,965.85
2019-03-02T08:20:47.038Z,965.87
2019-03-02T08:21:47.015Z,965.86
2019-03-02T08:22:47.057Z,965.86
2019-03-02T08:23:46.910Z,965.88
2019-03-02T08:24:46.819Z,965.86
2019-03-02T08:25:46.764Z,965.86
2019-03-02T08:26:46.698Z,965.82
2019-03-02T08:27:46.647Z,965.84
2019-03-02T08:28:46.683Z,965.82
2019-03-02T08:29:46.531Z,965.80
2019-03-02T08:30:46.468Z,965.84
2019-03-02T08:31:47.003Z,965.83
2019-03-02T08:32:46.413Z,965.88
2019-03-02T08:33:46.302Z,965.84
2019-03-02T08:34:46.484Z,965.80
2019-03-02T08:35:48.202Z,965.81
2019-03-02T08:36:46.138Z,965.74
2019-03-02T08:37:46.119Z,965.82
2019-03-02T08:38:46.018Z,965.84
2019-03-02T08:39:46.544Z,965.82
2019-03-02T08:40:45.900Z,965.80
2019-03-02T08:41:45.844Z,965.79
2019-03-02T08:42:45.821Z,965.81
2019-03-02T08:43:45.735Z,965.79
2019-03-02T08:44:45.708Z,965.79
2019-03-02T08:45:45.650Z,965.80
2019-03-02T08:46:45.559Z,965.85
2019-03-02T08:47:45.504Z,965.79
2019-03-02T08:48:45.450Z,965.80
2019-03-02T08:49:45.436Z,965.77
2019-03-02T08:50:45.701Z,965.77
2019-03-02T08:51:45.274Z,965.78
2019-03-02T08:52:45.228Z,965.75
2019-03-02T08:53:45.161Z,965.76
2019-03-02T08:54:45.136Z,965.75
2019-03-02T08:55:45.081Z,965.75
2019-03-02T08:56:47.745Z,965.75
2019-03-02T08:57:44.935Z,965.79
2019-03-02T08:58:44.883Z,965.73
2019-03-02T08:59:44.820Z,965.73
2019-03-02T09:00:44.807Z,965.73
2019-03-02T09:01:44.737Z,965.72
2019-03-02T09:02:44.652Z,965.68
2019-03-02T09:03:44.599Z,965.65
2019-03-02T09:04:47.300Z,965.66
2019-03-02T09:05:51.227Z,965.66
2019-03-02T09:06:44.454Z,965.59
2019-03-02T09:07:44.460Z,965.62
2019-03-02T09:08:44.309Z,965.62
2019-03-02T09:09:44.251Z,965.60
2019-03-02T09:10:45.836Z,965.61
2019-03-02T09:11:44.677Z,965.63
2019-03-02T09:12:44.077Z,965.58
2019-03-02T09:13:44.022Z,965.58
2019-03-02T09:14:45.071Z,965.58
2019-03-02T09:15:43.912Z,965.60
2019-03-02T09:16:43.852Z,965.59
2019-03-02T09:17:43.798Z,965.61
2019-03-02T09:18:45.673Z,965.58
2019-03-02T09:19:43.719Z,965.58
2019-03-02T09:20:43.626Z,965.59
2019-03-02T09:21:44.651Z,965.57
2019-03-02T09:22:43.511Z,965.60
2019-03-02T09:23:43.453Z,965.53
2019-03-02T09:24:45.867Z,965.58
2019-03-02T09:25:43.341Z,965.55
2019-03-02T09:26:43.283Z,965.52
2019-03-02T09:27:43.226Z,965.51
2019-03-02T09:28:43.167Z,965.52
2019-03-02T09:29:43.142Z,965.58
2019-03-02T09:30:43.098Z,965.53
2019-03-02T09:31:42.995Z,965.57
2019-03-02T09:32:42.940Z,965.57
2019-03-02T09:33:42.886Z,965.59
2019-03-02T09:34:42.826Z,965.61
2019-03-02T09:35:42.802Z,965.59
2019-03-02T09:36:43.554Z,965.61
2019-03-02T09:37:43.898Z,965.63
2019-03-02T09:38:42.600Z,965.65
2019-03-02T09:39:42.545Z,965.69
2019-03-02T09:40:45.896Z,965.67
2019-03-02T09:41:42.432Z,965.70
2019-03-02T09:42:42.409Z,965.71
2019-03-02T09:43:42.314Z,965.68
2019-03-02T09:44:42.267Z,965.68
2019-03-02T09:45:44.793Z,965.68
2019-03-02T09:46:42.155Z,965.64
2019-03-02T09:47:43.974Z,965.71
2019-03-02T09:48:42.044Z,965.66
2019-03-02T09:49:41.979Z,965.65
2019-03-02T09:50:41.919Z,965.64
2019-03-02T09:51:44.713Z,965.67
2019-03-02T09:52:41.806Z,965.63
2019-03-02T09:53:43.589Z,965.68
2019-03-02T09:54:41.690Z,965.67
2019-03-02T09:55:41.642Z,965.64
2019-03-02T09:56:41.607Z,965.65
2019-03-02T09:57:47.273Z,965.68
2019-03-02T09:58:41.467Z,965.57
2019-03-02T09:59:42.078Z,965.58
2019-03-02T10:00:41.351Z,965.58
2019-03-02T10:01:41.327Z,965.62
2019-03-02T10:02:41.236Z,965.61
2019-03-02T10:03:41.180Z,965.61
2019-03-02T10:04:41.128Z,965.62
2019-03-02T10:05:41.070Z,965.60
2019-03-02T10:06:41.062Z,965.60
2019-03-02T10:07:40.959Z,965.61
2019-03-02T10:08:42.391Z,965.63
2019-03-02T10:09:40.839Z,965.59
2019-03-02T10:10:40.819Z,965.58
2019-03-02T10:11:40.728Z,965.59
2019-03-02T10:12:40.793Z,965.61
2019-03-02T10:13:40.614Z,965.58
2019-03-02T10:14:40.558Z,965.59
2019-03-02T10:15:40.509Z,965.61
2019-03-02T10:16:40.446Z,965.55
2019-03-02T10:17:40.427Z,965.56
2019-03-02T10:18:40.331Z,965.56
2019-03-02T10:19:40.279Z,965.59
2019-03-02T10:20:42.660Z,965.55
2019-03-02T10:21:43.595Z,965.56
2019-03-02T10:22:40.145Z,965.61
2019-03-02T10:23:42.063Z,965.61
2019-03-02T10:24:40.029Z,965.62
2019-03-02T10:25:39.986Z,965.68
2019-03-02T10:26:43.407Z,965.66
2019-03-02T10:27:39.825Z,965.64
2019-03-02T10:28:39.772Z,965.63
2019-03-02T10:29:39.715Z,965.64
2019-03-02T10:30:39.696Z,965.69
2019-03-02T10:31:40.603Z,965.66
2019-03-02T10:32:39.541Z,965.69
2019-03-02T10:33:39.487Z,965.60
2019-03-02T10:34:41.974Z,965.63
2019-03-02T10:35:39.403Z,965.66
2019-03-02T10:36:39.315Z,965.64
2019-03-02T10:37:39.478Z,965.64
2019-03-02T10:38:39.208Z,965.67
2019-03-02T10:39:39.148Z,965.70
2019-03-02T10:40:41.634Z,965.68
2019-03-02T10:41:39.037Z,965.71
2019-03-02T10:42:39.507Z,965.68
2019-03-02T10:43:38.924Z,965.69
2019-03-02T10:44:38.863Z,965.71
2019-03-02T10:45:38.840Z,965.74
2019-03-02T10:46:38.754Z,965.78
2019-03-02T10:47:38.698Z,965.74
2019-03-02T10:48:38.672Z,965.77
2019-03-02T10:49:38.618Z,965.73
2019-03-02T10:50:38.528Z,965.75
2019-03-02T10:51:38.474Z,965.77
2019-03-02T10:52:38.414Z,965.74
2019-03-02T10:53:38.361Z,965.72
2019-03-02T10:54:38.326Z,965.70
2019-03-02T10:55:38.244Z,965.68
2019-03-02T10:56:38.189Z,965.66
2019-03-02T10:57:38.132Z,965.69
2019-03-02T10:58:38.736Z,965.68
2019-03-02T10:59:38.021Z,965.71
2019-03-02T11:00:38.195Z,965.71
2019-03-02T11:01:39.925Z,965.67
2019-03-02T11:02:37.853Z,965.65
2019-03-02T11:03:37.795Z,965.67
2019-03-02T11:04:40.971Z,965.61
2019-03-02T11:05:37.727Z,965.63
2019-03-02T11:06:37.628Z,965.62
2019-03-02T11:07:37.570Z,965.61
2019-03-02T11:08:37.513Z,965.60
2019-03-02T11:09:39.734Z,965.62
2019-03-02T11:10:37.434Z,965.61
2019-03-02T11:11:37.353Z,965.59
2019-03-02T11:12:39.765Z,965.56
2019-03-02T11:13:37.232Z,965.53
2019-03-02T11:14:37.177Z,965.52
2019-03-02T11:15:39.770Z,965.51
2019-03-02T11:16:37.065Z,965.55
2019-03-02T11:17:37.010Z,965.51
2019-03-02T11:18:36.953Z,965.53
2019-03-02T11:19:36.893Z,965.54
2019-03-02T11:20:36.878Z,965.55
2019-03-02T11:21:36.784Z,965.54
2019-03-02T11:22:38.812Z,965.54
2019-03-02T11:23:36.673Z,965.54
2019-03-02T11:24:36.616Z,965.51
2019-03-02T11:25:36.594Z,965.53
2019-03-02T11:26:36.503Z,965.53
2019-03-02T11:27:36.449Z,965.51
2019-03-02T11:28:36.393Z,965.54
2019-03-02T11:29:36.367Z,965.49
2019-03-02T11:30:36.311Z,965.53
2019-03-02T11:31:36.222Z,965.50
2019-03-02T11:32:36.166Z,965.50
2019-03-02T11:33:36.144Z,965.45
2019-03-02T11:34:36.054Z,965.48
2019-03-02T11:35:36.005Z,965.47
2019-03-02T11:36:35.964Z,965.47
2019-03-02T11:37:35.920Z,965.48
2019-03-02T11:38:37.305Z,965.42
2019-03-02T11:39:35.778Z,965.46
2019-03-02T11:40:35.749Z,965.52
2019-03-02T11:41:35.699Z,965.52
2019-03-02T11:42:35.609Z,965.51
2019-03-02T11:43:36.880Z,965.49
2019-03-02T11:44:35.494Z,965.48
2019-03-02T11:45:35.436Z,965.48
2019-03-02T11:46:35.415Z,965.46
2019-03-02T11:47:36.607Z,965.51
2019-03-02T11:48:35.272Z,965.49
2019-03-02T11:49:38.557Z,965.47
2019-03-02T11:50:35.158Z,965.45
2019-03-02T11:51:35.102Z,965.48
2019-03-02T11:52:38.507Z,965.46
2019-03-02T11:53:34.992Z,965.50
2019-03-02T11:54:34.935Z,965.47
2019-03-02T11:55:34.878Z,965.47
2019-03-02T11:56:34.824Z,965.43
2019-03-02T11:57:34.801Z,965.46
2019-03-02T11:58:36.835Z,965.46
2019-03-02T11:59:34.655Z,965.40
2019-03-02T12:00:37.698Z,965.38
2019-03-02T12:01:35.384Z,965.38
2019-03-02T12:02:34.489Z,965.38
2019-03-02T12:03:35.253Z,965.39
2019-03-02T12:04:34.380Z,965.35
2019-03-02T12:05:34.320Z,965.36
2019-03-02T12:06:37.865Z,965.35
2019-03-02T12:07:34.207Z,965.36
2019-03-02T12:08:34.151Z,965.32
2019-03-02T12:09:34.104Z,965.37
2019-03-02T12:10:34.083Z,965.31
2019-03-02T12:11:33.989Z,965.31
2019-03-02T12:12:33.929Z,965.34
2019-03-02T12:13:34.974Z,965.29
2019-03-02T12:14:34.663Z,965.30
2019-03-02T12:15:33.790Z,965.29
2019-03-02T12:16:33.708Z,965.26
2019-03-02T12:17:33.650Z,965.30
2019-03-02T12:18:33.598Z,965.30
2019-03-02T12:19:33.540Z,965.29
2019-03-02T12:20:33.517Z,965.26
2019-03-02T12:21:33.427Z,965.21
2019-03-02T12:22:34.437Z,965.23
2019-03-02T12:23:34.048Z,965.24
2019-03-02T12:24:33.264Z,965.25
2019-03-02T12:25:35.064Z,965.26
2019-03-02T12:26:33.184Z,965.21
2019-03-02T12:27:33.095Z,965.21